SANR

Details ICAO SANR
Name TERMAS DE RIO HONDO
Region Argentina
Timezone America/Argentina/Cordoba (UTC-3.0)
Plans Departing 4
Arriving 3
Stats Elevation 919 ft / 280 m (AMSL)
Location -27.496787° -64.936340°
Runways 1
Magnetic Variation 6.868° W
Sunrise 2018-05-21 10:57:53 UTC / 2018-05-21 07:57:53 Local
Sunset 2018-05-21 21:37:40 UTC / 2018-05-21 18:37:40 Local
Advertisement - Login to hide

Runways

ID Width Length Bearing (true) Bearing (mag) Surface Threshold Offset Overrun Length
1 98 ft / 30 m 8,232 ft / 2,509 m 1.32° 8.19° Asphalt 0 ft / 0 m 0 ft / 0 m
19 98 ft / 30 m 8,232 ft / 2,509 m 181.32° 188.19° Asphalt 0 ft / 0 m 0 ft / 0 m

Map

Weather


0- 5 10 15 20 25 30 35+ Temperature / ° C

Clouds and Precipitation
Forecast for 2018-05-21 12:00 UTC. Updated 2 hours ago

Ground ~20,000 ft ~40,000 ft Winds

METAR

Not found

TAF

TAF SANR 211100Z 2112/2212 05005KT CAVOK TX23/2118Z TN07/2210Z BECMG 2118/2121 14010KT CAVOK BECMG 2205/2208 18005KT CAVOK

Frequencies

Tower 118.30 MHz TWR
Warning: Do not use this data for real-world aviation or navigation. No guarantee of current accuracy is given.